createdAt,value
2018-03-20T00:00:48.488Z,9.10
2018-03-20T00:01:48.686Z,8.10
2018-03-20T00:02:48.469Z,8.80
2018-03-20T00:03:48.461Z,8.50
2018-03-20T00:04:48.454Z,9.00
2018-03-20T00:05:48.429Z,8.00
2018-03-20T00:06:48.430Z,8.50
2018-03-20T00:07:48.417Z,9.50
2018-03-20T00:08:48.611Z,9.00
2018-03-20T00:09:48.395Z,8.80
2018-03-20T00:10:48.592Z,8.40
2018-03-20T00:11:48.364Z,8.80
2018-03-20T00:12:48.354Z,8.70
2018-03-20T00:13:48.354Z,8.70
2018-03-20T00:14:48.354Z,9.00
2018-03-20T00:15:48.319Z,8.60
2018-03-20T00:16:48.309Z,9.20
2018-03-20T00:17:48.300Z,9.50
2018-03-20T00:18:48.298Z,8.90
2018-03-20T00:19:48.291Z,9.20
2018-03-20T00:20:48.270Z,9.80
2018-03-20T00:21:48.266Z,9.60
2018-03-20T00:22:48.460Z,9.10
2018-03-20T00:23:48.901Z,9.70
2018-03-20T00:24:48.222Z,9.40
2018-03-20T00:25:48.235Z,9.60
2018-03-20T00:26:48.215Z,9.10
2018-03-20T00:27:48.202Z,9.20
2018-03-20T00:28:48.182Z,9.40
2018-03-20T00:29:48.180Z,8.80
2018-03-20T00:30:48.180Z,8.80
2018-03-20T00:31:48.188Z,9.80
2018-03-20T00:32:48.137Z,10.00
2018-03-20T00:33:48.333Z,9.50
2018-03-20T00:34:48.125Z,8.70
2018-03-20T00:35:48.130Z,9.10
2018-03-20T00:36:48.096Z,10.80
2018-03-20T00:37:48.115Z,10.20
2018-03-20T00:38:48.075Z,10.20
2018-03-20T00:39:48.063Z,10.10
2018-03-20T00:40:48.054Z,9.90
2018-03-20T00:41:48.056Z,9.70
2018-03-20T00:42:48.057Z,10.50
2018-03-20T00:43:48.033Z,10.50
2018-03-20T00:44:48.024Z,10.00
2018-03-20T00:45:48.012Z,10.20
2018-03-20T00:46:47.999Z,10.20
2018-03-20T00:47:48.182Z,11.20
2018-03-20T00:48:48.185Z,11.30
2018-03-20T00:49:47.957Z,12.40
2018-03-20T00:50:48.149Z,11.60
2018-03-20T00:51:47.950Z,11.00
2018-03-20T00:52:47.948Z,10.10
2018-03-20T00:53:47.925Z,10.60
2018-03-20T00:54:48.129Z,11.10
2018-03-20T00:55:47.892Z,10.20
2018-03-20T00:56:47.892Z,11.10
2018-03-20T00:57:47.881Z,10.50
2018-03-20T00:58:47.873Z,11.20
2018-03-20T00:59:48.079Z,9.90
2018-03-20T01:00:47.841Z,10.10
2018-03-20T01:01:47.850Z,10.30
2018-03-20T01:02:48.032Z,10.20
2018-03-20T01:03:47.808Z,11.00
2018-03-20T01:04:47.822Z,11.10
2018-03-20T01:05:48.000Z,10.60
2018-03-20T01:06:47.789Z,11.70
2018-03-20T01:07:47.774Z,10.20
2018-03-20T01:08:47.762Z,10.90
2018-03-20T01:09:47.956Z,10.40
2018-03-20T01:10:47.942Z,10.60
2018-03-20T01:11:47.748Z,10.60
2018-03-20T01:12:47.723Z,11.00
2018-03-20T01:13:47.699Z,10.40
2018-03-20T01:14:47.700Z,11.10
2018-03-20T01:15:47.677Z,11.20
2018-03-20T01:16:47.693Z,10.60
2018-03-20T01:17:47.666Z,12.70
2018-03-20T01:18:47.643Z,11.10
2018-03-20T01:19:47.838Z,12.00
2018-03-20T01:20:47.637Z,11.10
2018-03-20T01:21:47.826Z,10.30
2018-03-20T01:22:47.601Z,11.80
2018-03-20T01:23:47.587Z,12.20
2018-03-20T01:24:47.588Z,13.20
2018-03-20T01:25:47.569Z,11.90
2018-03-20T01:26:47.564Z,11.70
2018-03-20T01:27:47.570Z,10.80
2018-03-20T01:28:47.561Z,10.50
2018-03-20T01:29:47.533Z,12.40
2018-03-20T01:30:47.520Z,10.90
2018-03-20T01:31:47.527Z,11.10
2018-03-20T01:32:47.691Z,10.70
2018-03-20T01:33:47.491Z,10.40
2018-03-20T01:34:47.477Z,11.60
2018-03-20T01:35:47.457Z,11.50
2018-03-20T01:36:47.447Z,11.80
2018-03-20T01:37:47.446Z,12.00
2018-03-20T01:38:47.639Z,11.50
2018-03-20T01:39:47.413Z,12.50
2018-03-20T01:40:47.605Z,12.10
2018-03-20T01:41:47.404Z,12.70
2018-03-20T01:42:47.390Z,14.70
2018-03-20T01:43:47.391Z,11.90
2018-03-20T01:44:47.354Z,11.50
2018-03-20T01:45:47.566Z,11.00
2018-03-20T01:46:47.544Z,11.50
2018-03-20T01:47:47.321Z,12.40
2018-03-20T01:48:47.319Z,11.50
2018-03-20T01:49:47.296Z,12.10
2018-03-20T01:50:47.285Z,12.30
2018-03-20T01:51:47.478Z,11.30
2018-03-20T01:52:47.276Z,11.00
2018-03-20T01:53:47.276Z,12.10
2018-03-20T01:54:47.265Z,12.00
2018-03-20T01:55:47.227Z,10.50
2018-03-20T01:56:47.238Z,12.40
2018-03-20T01:57:47.222Z,11.60
2018-03-20T01:58:47.206Z,11.50
2018-03-20T01:59:47.197Z,11.80
2018-03-20T02:00:47.185Z,12.40
2018-03-20T02:01:47.166Z,12.50
2018-03-20T02:02:47.159Z,11.30
2018-03-20T02:03:47.352Z,12.40
2018-03-20T02:04:47.140Z,12.30
2018-03-20T02:05:47.132Z,12.90
2018-03-20T02:06:47.107Z,12.20
2018-03-20T02:07:47.311Z,11.90
2018-03-20T02:08:47.085Z,12.10
2018-03-20T02:09:47.275Z,11.80
2018-03-20T02:10:47.062Z,12.50
2018-03-20T02:11:47.054Z,12.10
2018-03-20T02:12:47.042Z,12.50
2018-03-20T02:13:47.231Z,12.80
2018-03-20T02:14:47.028Z,12.80
2018-03-20T02:15:47.008Z,12.40
2018-03-20T02:16:47.006Z,11.40
2018-03-20T02:17:46.986Z,12.40
2018-03-20T02:18:46.976Z,12.20
2018-03-20T02:19:46.985Z,12.00
2018-03-20T02:20:46.966Z,11.90
2018-03-20T02:21:47.147Z,12.10
2018-03-20T02:22:46.943Z,12.60
2018-03-20T02:23:47.137Z,12.80
2018-03-20T02:24:46.932Z,12.90
2018-03-20T02:25:46.901Z,12.10
2018-03-20T02:26:46.899Z,14.10
2018-03-20T02:27:46.885Z,13.00
2018-03-20T02:28:46.883Z,12.20
2018-03-20T02:29:46.857Z,12.70
2018-03-20T02:30:46.867Z,12.80
2018-03-20T02:31:46.846Z,11.50
2018-03-20T02:32:46.828Z,13.30
2018-03-20T02:33:46.816Z,14.00
2018-03-20T02:34:47.006Z,13.20
2018-03-20T02:35:47.004Z,12.80
2018-03-20T02:36:46.784Z,13.40
2018-03-20T02:37:46.790Z,14.70
2018-03-20T02:38:46.773Z,13.60
2018-03-20T02:39:46.767Z,13.00
2018-03-20T02:40:46.743Z,12.60
2018-03-20T02:41:46.756Z,12.90
2018-03-20T02:42:46.731Z,13.80
2018-03-20T02:43:46.929Z,12.50
2018-03-20T02:44:46.712Z,12.80
2018-03-20T02:45:46.705Z,12.70
2018-03-20T02:46:46.696Z,12.80
2018-03-20T02:47:46.683Z,11.40
2018-03-20T02:48:46.672Z,12.50
2018-03-20T02:49:46.648Z,11.90
2018-03-20T02:50:46.640Z,13.50
2018-03-20T02:51:46.667Z,12.00
2018-03-20T02:52:46.647Z,12.80
2018-03-20T02:53:46.619Z,12.20
2018-03-20T02:54:46.598Z,12.70
2018-03-20T02:55:46.585Z,12.30
2018-03-20T02:56:46.807Z,12.50
2018-03-20T02:57:46.580Z,10.90
2018-03-20T02:58:46.570Z,11.30
2018-03-20T02:59:46.762Z,12.20
2018-03-20T03:00:46.548Z,12.40
2018-03-20T03:01:46.742Z,12.20
2018-03-20T03:02:46.520Z,13.10
2018-03-20T03:03:46.503Z,12.00
2018-03-20T03:04:46.496Z,11.40
2018-03-20T03:05:46.710Z,12.10
2018-03-20T03:06:46.691Z,12.00
2018-03-20T03:07:46.468Z,11.70
2018-03-20T03:08:46.467Z,12.70
2018-03-20T03:09:46.468Z,11.50
2018-03-20T03:10:46.433Z,12.90
2018-03-20T03:11:46.435Z,11.30
2018-03-20T03:12:46.427Z,11.80
2018-03-20T03:13:46.425Z,11.10
2018-03-20T03:14:46.390Z,11.20
2018-03-20T03:15:46.417Z,11.40
2018-03-20T03:16:46.376Z,11.40
2018-03-20T03:17:46.363Z,10.50
2018-03-20T03:18:46.353Z,11.90
2018-03-20T03:19:46.558Z,12.10
2018-03-20T03:20:46.538Z,12.60
2018-03-20T03:21:46.337Z,12.80
2018-03-20T03:22:46.519Z,12.00
2018-03-20T03:23:46.303Z,12.60
2018-03-20T03:24:46.309Z,12.20
2018-03-20T03:25:46.297Z,12.20
2018-03-20T03:26:46.276Z,13.30
2018-03-20T03:27:46.276Z,12.50
2018-03-20T03:28:46.260Z,12.10
2018-03-20T03:29:46.258Z,13.90
2018-03-20T03:30:46.452Z,13.30
2018-03-20T03:31:46.227Z,13.50
2018-03-20T03:32:46.238Z,13.50
2018-03-20T03:33:46.408Z,12.60
2018-03-20T03:34:46.197Z,12.80
2018-03-20T03:35:46.188Z,12.80
2018-03-20T03:36:46.189Z,12.40
2018-03-20T03:37:46.392Z,12.60
2018-03-20T03:38:46.371Z,13.90
2018-03-20T03:39:46.158Z,16.30
2018-03-20T03:40:46.350Z,13.10
2018-03-20T03:41:46.136Z,12.90
2018-03-20T03:42:46.136Z,13.10
2018-03-20T03:43:46.118Z,13.20
2018-03-20T03:44:46.119Z,13.80
2018-03-20T03:45:46.304Z,14.40
2018-03-20T03:46:46.077Z,13.90
2018-03-20T03:47:46.280Z,13.70
2018-03-20T03:48:46.084Z,13.50
2018-03-20T03:49:46.324Z,12.70
2018-03-20T03:50:46.252Z,13.30
2018-03-20T03:51:46.027Z,13.00
2018-03-20T03:52:46.029Z,13.80
2018-03-20T03:53:46.224Z,14.00
2018-03-20T03:54:46.007Z,13.30
2018-03-20T03:55:46.191Z,13.60
2018-03-20T03:56:45.977Z,14.10
2018-03-20T03:57:45.968Z,14.50
2018-03-20T03:58:46.179Z,14.00
2018-03-20T03:59:46.172Z,13.50
2018-03-20T04:00:46.149Z,12.90
2018-03-20T04:01:45.924Z,14.50
2018-03-20T04:02:45.913Z,13.60
2018-03-20T04:03:45.952Z,14.20
2018-03-20T04:04:46.135Z,13.70
2018-03-20T04:05:45.884Z,14.30
2018-03-20T04:06:45.900Z,14.10
2018-03-20T04:07:45.864Z,15.30
2018-03-20T04:08:45.869Z,16.60
2018-03-20T04:09:45.858Z,14.00
2018-03-20T04:10:45.843Z,14.30
2018-03-20T04:11:45.838Z,15.50
2018-03-20T04:12:45.840Z,16.20
2018-03-20T04:13:45.820Z,15.80
2018-03-20T04:14:45.799Z,17.80
2018-03-20T04:15:45.795Z,15.80
2018-03-20T04:16:45.776Z,15.90
2018-03-20T04:17:45.777Z,16.10
2018-03-20T04:18:45.752Z,17.10
2018-03-20T04:19:45.745Z,18.10
2018-03-20T04:20:45.734Z,15.00
2018-03-20T04:21:45.941Z,17.70
2018-03-20T04:22:45.723Z,15.90
2018-03-20T04:23:45.723Z,16.60
2018-03-20T04:24:45.704Z,15.90
2018-03-20T04:25:45.730Z,16.70
2018-03-20T04:26:45.878Z,16.20
2018-03-20T04:27:45.675Z,17.10
2018-03-20T04:28:45.669Z,17.90
2018-03-20T04:29:45.647Z,17.60
2018-03-20T04:30:45.647Z,16.80
2018-03-20T04:31:45.626Z,17.10
2018-03-20T04:32:45.817Z,17.00
2018-03-20T04:33:45.833Z,16.80
2018-03-20T04:34:45.609Z,18.60
2018-03-20T04:35:45.584Z,17.70
2018-03-20T04:36:45.579Z,16.90
2018-03-20T04:37:45.576Z,19.50
2018-03-20T04:38:45.578Z,18.90
2018-03-20T04:39:45.547Z,19.00
2018-03-20T04:40:45.533Z,18.10
2018-03-20T04:41:45.728Z,17.90
2018-03-20T04:42:45.525Z,18.70
2018-03-20T04:43:45.706Z,18.10
2018-03-20T04:44:45.496Z,16.60
2018-03-20T04:45:45.696Z,17.30
2018-03-20T04:46:45.477Z,17.00
2018-03-20T04:47:45.463Z,17.80
2018-03-20T04:48:45.658Z,17.90
2018-03-20T04:49:45.443Z,19.20
2018-03-20T04:50:45.458Z,19.00
2018-03-20T04:51:45.627Z,16.60
2018-03-20T04:52:45.621Z,16.90
2018-03-20T04:53:45.417Z,17.10
2018-03-20T04:54:45.394Z,17.60
2018-03-20T04:55:45.384Z,18.30
2018-03-20T04:56:45.398Z,17.80
2018-03-20T04:57:45.566Z,19.30
2018-03-20T04:58:45.571Z,18.40
2018-03-20T04:59:45.342Z,20.50
2018-03-20T05:00:45.552Z,19.70
2018-03-20T05:01:45.332Z,17.60
2018-03-20T05:02:45.310Z,19.40
2018-03-20T05:03:45.320Z,18.80
2018-03-20T05:04:45.308Z,18.30
2018-03-20T05:05:45.285Z,19.60
2018-03-20T05:06:45.272Z,20.40
2018-03-20T05:07:45.263Z,21.40
2018-03-20T05:08:45.453Z,20.50
2018-03-20T05:09:45.466Z,22.00
2018-03-20T05:10:45.241Z,20.70
2018-03-20T05:11:45.232Z,20.60
2018-03-20T05:12:45.245Z,20.60
2018-03-20T05:13:45.243Z,20.50
2018-03-20T05:14:45.236Z,20.40
2018-03-20T05:15:45.187Z,19.00
2018-03-20T05:16:45.185Z,19.00
2018-03-20T05:17:45.176Z,19.10
2018-03-20T05:18:45.162Z,20.00
2018-03-20T05:19:45.372Z,18.90
2018-03-20T05:20:45.130Z,19.10
2018-03-20T05:21:45.137Z,18.80
2018-03-20T05:22:45.122Z,19.50
2018-03-20T05:23:45.097Z,19.30
2018-03-20T05:24:45.111Z,20.50
2018-03-20T05:25:45.078Z,22.00
2018-03-20T05:26:45.067Z,19.20
2018-03-20T05:27:45.058Z,19.70
2018-03-20T05:28:45.071Z,18.00
2018-03-20T05:29:45.242Z,20.60
2018-03-20T05:30:45.236Z,19.30
2018-03-20T05:31:45.233Z,19.30
2018-03-20T05:32:45.007Z,19.40
2018-03-20T05:33:44.997Z,19.20
2018-03-20T05:34:44.988Z,19.10
2018-03-20T05:35:44.977Z,19.10
2018-03-20T05:36:45.189Z,17.80
2018-03-20T05:37:45.175Z,19.20
2018-03-20T05:38:44.950Z,20.00
2018-03-20T05:39:44.947Z,19.50
2018-03-20T05:40:44.929Z,20.00
2018-03-20T05:41:44.934Z,18.60
2018-03-20T05:42:44.923Z,18.60
2018-03-20T05:43:44.905Z,18.70
2018-03-20T05:44:44.909Z,18.80
2018-03-20T05:45:44.879Z,18.80
2018-03-20T05:46:44.872Z,19.40
2018-03-20T05:47:44.870Z,18.80
2018-03-20T05:48:44.859Z,19.50
2018-03-20T05:49:45.068Z,20.00
2018-03-20T05:50:44.830Z,19.90
2018-03-20T05:51:45.046Z,20.10
2018-03-20T05:52:45.012Z,21.80
2018-03-20T05:53:44.797Z,21.00
2018-03-20T05:54:44.799Z,19.80
2018-03-20T05:55:44.779Z,22.30
2018-03-20T05:56:44.767Z,21.90
2018-03-20T05:57:44.772Z,22.10
2018-03-20T05:58:44.773Z,23.30
2018-03-20T05:59:44.950Z,22.20
2018-03-20T06:00:44.941Z,23.30
2018-03-20T06:01:44.738Z,22.10
2018-03-20T06:02:44.706Z,22.20
2018-03-20T06:03:44.695Z,22.60
2018-03-20T06:04:44.686Z,23.40
2018-03-20T06:05:44.689Z,23.60
2018-03-20T06:06:44.668Z,23.20
2018-03-20T06:07:44.668Z,22.90
2018-03-20T06:08:44.677Z,22.00
2018-03-20T06:09:44.640Z,22.80
2018-03-20T06:10:44.624Z,22.40
2018-03-20T06:11:44.635Z,22.80
2018-03-20T06:12:44.641Z,24.20
2018-03-20T06:13:44.817Z,22.90
2018-03-20T06:14:44.595Z,23.90
2018-03-20T06:15:44.593Z,25.00
2018-03-20T06:16:44.769Z,24.60
2018-03-20T06:17:44.769Z,25.90
2018-03-20T06:18:44.554Z,27.30
2018-03-20T06:19:44.535Z,25.00
2018-03-20T06:20:44.727Z,25.80
2018-03-20T06:21:44.543Z,24.40
2018-03-20T06:22:44.518Z,26.90
2018-03-20T06:23:44.499Z,24.20
2018-03-20T06:24:44.498Z,25.80
2018-03-20T06:25:44.702Z,25.80
2018-03-20T06:26:44.468Z,27.20
2018-03-20T06:27:44.455Z,25.60
2018-03-20T06:28:44.446Z,25.80
2018-03-20T06:29:44.435Z,28.70
2018-03-20T06:30:44.432Z,25.20
2018-03-20T06:31:44.434Z,25.80
2018-03-20T06:32:44.402Z,28.50
2018-03-20T06:33:44.616Z,25.90
2018-03-20T06:34:44.385Z,25.80
2018-03-20T06:35:44.576Z,27.80
2018-03-20T06:36:44.364Z,28.90
2018-03-20T06:37:44.362Z,27.00
2018-03-20T06:38:44.353Z,24.70
2018-03-20T06:39:44.343Z,26.90
2018-03-20T06:40:44.333Z,29.00
2018-03-20T06:41:44.314Z,27.60
2018-03-20T06:42:44.311Z,27.70
2018-03-20T06:43:44.498Z,27.40
2018-03-20T06:44:44.292Z,26.30
2018-03-20T06:45:44.474Z,26.60
2018-03-20T06:46:44.283Z,26.30
2018-03-20T06:47:44.263Z,27.00
2018-03-20T06:48:44.253Z,28.80
2018-03-20T06:49:44.242Z,25.70
2018-03-20T06:50:44.218Z,28.00
2018-03-20T06:51:44.221Z,25.70
2018-03-20T06:52:44.409Z,25.90
2018-03-20T06:53:44.192Z,25.60
2018-03-20T06:54:44.181Z,29.40
2018-03-20T06:55:44.378Z,26.30
2018-03-20T06:56:44.171Z,27.20
2018-03-20T06:57:44.154Z,28.50
2018-03-20T06:58:44.147Z,34.90
2018-03-20T06:59:44.141Z,25.60
2018-03-20T07:00:44.121Z,25.60
2018-03-20T07:01:44.112Z,26.10
2018-03-20T07:02:44.109Z,25.20
2018-03-20T07:03:44.091Z,25.30
2018-03-20T07:04:44.092Z,26.60
2018-03-20T07:05:44.095Z,25.60
2018-03-20T07:06:44.079Z,26.80
2018-03-20T07:07:44.059Z,24.40
2018-03-20T07:08:44.044Z,24.80
2018-03-20T07:09:44.035Z,26.80
2018-03-20T07:10:44.048Z,29.90
2018-03-20T07:11:44.033Z,27.80
2018-03-20T07:12:44.012Z,25.00
2018-03-20T07:13:44.213Z,25.40
2018-03-20T07:14:43.982Z,24.70
2018-03-20T07:15:43.973Z,27.00
2018-03-20T07:16:43.974Z,26.60
2018-03-20T07:17:44.155Z,26.80
2018-03-20T07:18:43.949Z,27.10
2018-03-20T07:19:43.933Z,27.80
2018-03-20T07:20:43.946Z,31.90
2018-03-20T07:21:43.921Z,31.00
2018-03-20T07:22:43.916Z,31.30
2018-03-20T07:23:43.907Z,31.30
2018-03-20T07:24:44.107Z,34.90
2018-03-20T07:25:43.883Z,33.20
2018-03-20T07:26:43.884Z,33.40
2018-03-20T07:27:43.871Z,33.20
2018-03-20T07:28:43.850Z,37.10
2018-03-20T07:29:44.056Z,34.20
2018-03-20T07:30:43.843Z,33.60
2018-03-20T07:31:43.826Z,31.50
2018-03-20T07:32:43.827Z,34.00
2018-03-20T07:33:43.804Z,29.80
2018-03-20T07:34:43.802Z,31.90
2018-03-20T07:35:44.003Z,33.70
2018-03-20T07:36:43.779Z,35.00
2018-03-20T07:37:43.973Z,32.80
2018-03-20T07:38:43.774Z,36.30
2018-03-20T07:39:43.955Z,36.60
2018-03-20T07:40:43.741Z,35.80
2018-03-20T07:41:43.760Z,33.50
2018-03-20T07:42:43.926Z,35.30
2018-03-20T07:43:43.715Z,36.80
2018-03-20T07:44:43.703Z,36.70
2018-03-20T07:45:43.918Z,36.90
2018-03-20T07:46:43.698Z,34.70
2018-03-20T07:47:43.676Z,33.90
2018-03-20T07:48:43.682Z,34.10
2018-03-20T07:49:43.660Z,35.30
2018-03-20T07:50:43.663Z,36.50
2018-03-20T07:51:43.638Z,39.10
2018-03-20T07:52:43.646Z,43.30
2018-03-20T07:53:43.625Z,39.80
2018-03-20T07:54:43.609Z,39.30
2018-03-20T07:55:43.626Z,40.10
2018-03-20T07:56:43.809Z,41.80
2018-03-20T07:57:43.588Z,41.50
2018-03-20T07:58:43.602Z,42.60
2018-03-20T07:59:43.767Z,43.70
2018-03-20T08:00:43.582Z,44.00
2018-03-20T08:01:43.546Z,39.60
2018-03-20T08:02:43.535Z,38.60
2018-03-20T08:03:43.542Z,38.80
2018-03-20T08:04:43.518Z,41.10
2018-03-20T08:05:43.530Z,48.90
2018-03-20T08:06:43.500Z,42.00
2018-03-20T08:07:43.492Z,40.70
2018-03-20T08:08:43.699Z,40.60
2018-03-20T08:09:43.500Z,45.70
2018-03-20T08:10:43.674Z,50.90
2018-03-20T08:11:43.462Z,48.70
2018-03-20T08:12:43.456Z,51.80
2018-03-20T08:13:43.642Z,46.30
2018-03-20T08:14:43.426Z,45.30
2018-03-20T08:15:43.631Z,54.10
2018-03-20T08:16:43.431Z,60.70
2018-03-20T08:17:43.600Z,57.10
2018-03-20T08:18:43.400Z,58.40
2018-03-20T08:19:43.391Z,62.50
2018-03-20T08:20:43.578Z,67.00
2018-03-20T08:21:43.370Z,65.90
2018-03-20T08:22:43.564Z,68.10
2018-03-20T08:23:43.354Z,69.80
2018-03-20T08:24:43.341Z,72.60
2018-03-20T08:25:43.335Z,74.60
2018-03-20T08:26:43.321Z,69.30
2018-03-20T08:27:43.313Z,69.30
2018-03-20T08:28:43.498Z,63.40
2018-03-20T08:29:43.287Z,64.60
2018-03-20T08:30:43.482Z,64.50
2018-03-20T08:31:43.271Z,67.80
2018-03-20T08:32:43.267Z,74.20
2018-03-20T08:33:43.263Z,69.90
2018-03-20T08:34:43.241Z,69.40
2018-03-20T08:35:43.239Z,68.60
2018-03-20T08:36:43.245Z,66.80
2018-03-20T08:37:43.214Z,70.20
2018-03-20T08:38:43.219Z,69.30
2018-03-20T08:39:43.410Z,66.80
2018-03-20T08:40:43.401Z,76.40
2018-03-20T08:41:43.380Z,71.20
2018-03-20T08:42:43.165Z,66.70
2018-03-20T08:43:43.158Z,65.10
2018-03-20T08:44:43.164Z,66.80
2018-03-20T08:45:43.153Z,65.70
2018-03-20T08:46:43.142Z,64.30
2018-03-20T08:47:43.148Z,62.40
2018-03-20T08:48:43.111Z,67.60
2018-03-20T08:49:43.130Z,68.20
2018-03-20T08:50:43.097Z,63.60
2018-03-20T08:51:43.099Z,71.10
2018-03-20T08:52:43.091Z,66.00
2018-03-20T08:53:43.080Z,67.00
2018-03-20T08:54:43.092Z,66.10
2018-03-20T08:55:43.081Z,60.30
2018-03-20T08:56:43.064Z,63.60
2018-03-20T08:57:43.054Z,65.70
2018-03-20T08:58:43.037Z,61.10
2018-03-20T08:59:43.022Z,63.40
2018-03-20T09:00:43.037Z,54.90
2018-03-20T09:01:42.998Z,53.10
2018-03-20T09:02:42.990Z,52.50
2018-03-20T09:03:43.004Z,53.00
2018-03-20T09:04:43.001Z,48.00
2018-03-20T09:05:43.013Z,54.20
2018-03-20T09:06:42.976Z,46.00
2018-03-20T09:07:42.972Z,44.90
2018-03-20T09:08:42.953Z,42.40
2018-03-20T09:09:42.958Z,47.00
2018-03-20T09:10:42.918Z,44.80
2018-03-20T09:11:43.132Z,43.60
2018-03-20T09:12:42.899Z,47.10
2018-03-20T09:13:42.904Z,38.90
2018-03-20T09:14:42.883Z,41.00
2018-03-20T09:15:42.887Z,40.90
2018-03-20T09:16:42.868Z,36.00
2018-03-20T09:17:42.870Z,37.80
2018-03-20T09:18:42.849Z,37.50
2018-03-20T09:19:42.840Z,38.00
2018-03-20T09:20:42.829Z,34.50
2018-03-20T09:21:43.047Z,36.60
2018-03-20T09:22:42.825Z,37.10
2018-03-20T09:23:42.821Z,35.80
2018-03-20T09:24:42.803Z,35.90
2018-03-20T09:25:42.799Z,34.30
2018-03-20T09:26:42.777Z,36.70
2018-03-20T09:27:42.783Z,34.50
2018-03-20T09:28:42.782Z,36.40
2018-03-20T09:29:42.774Z,32.90
2018-03-20T09:30:42.755Z,34.20
2018-03-20T09:31:42.746Z,31.80
2018-03-20T09:32:42.727Z,30.70
2018-03-20T09:33:42.731Z,32.30
2018-03-20T09:34:42.718Z,31.40
2018-03-20T09:35:42.701Z,29.90
2018-03-20T09:36:42.688Z,31.10
2018-03-20T09:37:42.682Z,28.90
2018-03-20T09:38:42.694Z,28.30
2018-03-20T09:39:42.671Z,30.80
2018-03-20T09:40:42.653Z,25.70
2018-03-20T09:41:42.646Z,27.50
2018-03-20T09:42:42.657Z,25.80
2018-03-20T09:43:42.630Z,24.10
2018-03-20T09:44:42.632Z,27.60
2018-03-20T09:45:42.627Z,28.50
2018-03-20T09:46:42.614Z,21.20
2018-03-20T09:47:42.594Z,17.10
2018-03-20T09:48:42.586Z,24.00
2018-03-20T09:49:42.585Z,28.60
2018-03-20T09:50:42.564Z,18.90
2018-03-20T09:51:42.558Z,18.50
2018-03-20T09:52:42.561Z,22.40
2018-03-20T09:53:42.565Z,17.90
2018-03-20T09:54:42.542Z,18.80
2018-03-20T09:55:42.545Z,19.10
2018-03-20T09:56:42.536Z,24.00
2018-03-20T09:57:42.528Z,15.70
2018-03-20T09:58:42.501Z,12.10
2018-03-20T09:59:42.501Z,12.70
2018-03-20T10:00:42.487Z,8.30
2018-03-20T10:01:42.483Z,10.40
2018-03-20T10:02:42.473Z,11.60
2018-03-20T10:03:42.466Z,10.20
2018-03-20T10:04:42.465Z,9.20
2018-03-20T10:05:42.462Z,10.60
2018-03-20T10:06:42.428Z,9.80
2018-03-20T10:07:42.419Z,6.10
2018-03-20T10:08:42.412Z,7.80
2018-03-20T10:09:42.413Z,8.70
2018-03-20T10:10:42.412Z,9.30
2018-03-20T10:11:42.382Z,9.00
2018-03-20T10:12:42.374Z,9.70
2018-03-20T10:13:42.379Z,9.50
2018-03-20T10:14:42.363Z,8.00
2018-03-20T10:15:42.348Z,7.20
2018-03-20T10:16:42.352Z,9.20
2018-03-20T10:17:42.343Z,7.30
2018-03-20T10:18:42.322Z,7.50
2018-03-20T10:19:42.314Z,7.00
2018-03-20T10:20:42.305Z,5.50
2018-03-20T10:21:42.299Z,6.10
2018-03-20T10:22:42.302Z,7.80
2018-03-20T10:23:42.312Z,7.10
2018-03-20T10:24:42.287Z,6.20
2018-03-20T10:25:42.274Z,6.30
2018-03-20T10:26:42.265Z,5.20
2018-03-20T10:27:42.249Z,6.30
2018-03-20T10:28:42.238Z,7.10
2018-03-20T10:29:42.252Z,4.90
2018-03-20T10:30:42.225Z,8.80
2018-03-20T10:31:42.213Z,5.60
2018-03-20T10:32:42.217Z,4.30
2018-03-20T10:33:42.198Z,4.20
2018-03-20T10:34:42.192Z,4.20
2018-03-20T10:35:42.180Z,4.30
2018-03-20T10:36:42.173Z,7.00
2018-03-20T10:37:42.177Z,4.40
2018-03-20T10:38:42.176Z,3.40
2018-03-20T10:39:42.166Z,3.70
2018-03-20T10:40:42.151Z,3.80
2018-03-20T10:41:42.131Z,3.10
2018-03-20T10:42:42.137Z,4.70
2018-03-20T10:43:42.124Z,4.30
2018-03-20T10:44:42.115Z,3.50
2018-03-20T10:45:42.124Z,3.70
2018-03-20T10:46:42.086Z,2.80
2018-03-20T10:47:42.078Z,3.70
2018-03-20T10:48:42.100Z,2.70
2018-03-20T10:49:42.066Z,3.10
2018-03-20T10:50:42.065Z,3.20
2018-03-20T10:51:42.047Z,2.30
2018-03-20T10:52:42.041Z,2.70
2018-03-20T10:53:42.050Z,2.50
2018-03-20T10:54:42.030Z,2.60
2018-03-20T10:55:42.017Z,3.70
2018-03-20T10:56:42.007Z,1.60
2018-03-20T10:57:42.024Z,3.10
2018-03-20T10:58:41.999Z,2.30
2018-03-20T10:59:42.008Z,2.60
2018-03-20T11:00:42.003Z,3.60
2018-03-20T11:01:41.965Z,3.20
2018-03-20T11:02:41.961Z,3.30
2018-03-20T11:03:41.962Z,3.40
2018-03-20T11:04:41.962Z,2.50
2018-03-20T11:05:41.932Z,2.90
2018-03-20T11:06:41.935Z,2.20
2018-03-20T11:07:41.915Z,2.50
2018-03-20T11:08:41.932Z,4.10
2018-03-20T11:09:41.904Z,3.00
2018-03-20T11:10:41.907Z,2.70
2018-03-20T11:11:41.886Z,2.60
2018-03-20T11:12:41.910Z,3.20
2018-03-20T11:13:41.886Z,2.00
2018-03-20T11:14:41.873Z,2.10
2018-03-20T11:15:41.853Z,3.80
2018-03-20T11:16:41.846Z,2.80
2018-03-20T11:17:41.853Z,2.90
2018-03-20T11:18:41.843Z,4.10
2018-03-20T11:19:41.830Z,3.20
2018-03-20T11:20:41.817Z,2.70
2018-03-20T11:21:41.836Z,2.10
2018-03-20T11:22:41.817Z,2.70
2018-03-20T11:23:41.808Z,3.70
2018-03-20T11:24:41.833Z,2.20
2018-03-20T11:25:41.799Z,2.70
2018-03-20T11:26:41.770Z,2.90
2018-03-20T11:27:41.787Z,2.40
2018-03-20T11:28:41.763Z,3.10
2018-03-20T11:29:41.748Z,2.60
2018-03-20T11:30:41.760Z,2.60
2018-03-20T11:31:41.742Z,1.90
2018-03-20T11:32:41.941Z,1.60
2018-03-20T11:33:41.739Z,2.40
2018-03-20T11:34:41.708Z,1.50
2018-03-20T11:35:41.722Z,2.20
2018-03-20T11:36:41.708Z,2.00
2018-03-20T11:37:41.684Z,3.20
2018-03-20T11:38:41.690Z,3.50
2018-03-20T11:39:41.684Z,2.70
2018-03-20T11:40:41.676Z,1.40
2018-03-20T11:41:41.671Z,2.80
2018-03-20T11:42:41.645Z,1.60
2018-03-20T11:43:41.842Z,1.30
2018-03-20T11:44:41.646Z,1.50
2018-03-20T11:45:41.623Z,2.30
2018-03-20T11:46:41.625Z,3.60
2018-03-20T11:47:41.814Z,1.50
2018-03-20T11:48:41.815Z,1.70
2018-03-20T11:49:41.806Z,1.40
2018-03-20T11:50:41.604Z,2.00
2018-03-20T11:51:41.588Z,4.00
2018-03-20T11:52:41.773Z,2.90
2018-03-20T11:53:41.563Z,1.50
2018-03-20T11:54:41.555Z,3.30
2018-03-20T11:55:41.544Z,1.80
2018-03-20T11:56:41.541Z,2.40
2018-03-20T11:57:41.543Z,1.60
2018-03-20T11:58:41.534Z,1.70
2018-03-20T11:59:41.519Z,2.40
2018-03-20T12:00:41.509Z,1.60
2018-03-20T12:01:41.514Z,2.40
2018-03-20T12:02:41.497Z,3.90
2018-03-20T12:03:41.710Z,2.20
2018-03-20T12:04:41.490Z,2.10
2018-03-20T12:05:41.484Z,2.20
2018-03-20T12:06:41.464Z,1.60
2018-03-20T12:07:41.474Z,1.50
2018-03-20T12:08:41.452Z,1.10
2018-03-20T12:09:41.451Z,1.70
2018-03-20T12:10:41.446Z,1.50
2018-03-20T12:11:41.441Z,2.50
2018-03-20T12:12:41.432Z,1.00
2018-03-20T12:13:41.426Z,1.50
2018-03-20T12:14:41.429Z,1.70
2018-03-20T12:15:41.604Z,2.70
2018-03-20T12:16:41.393Z,2.10
2018-03-20T12:17:41.395Z,1.40
2018-03-20T12:18:41.386Z,1.80
2018-03-20T12:19:41.381Z,1.80
2018-03-20T12:20:41.359Z,2.40
2018-03-20T12:21:41.368Z,1.40
2018-03-20T12:22:41.355Z,2.00
2018-03-20T12:23:41.352Z,1.50
2018-03-20T12:24:41.355Z,1.80
2018-03-20T12:25:41.325Z,2.00
2018-03-20T12:26:41.316Z,2.00
2018-03-20T12:27:41.324Z,1.70
2018-03-20T12:28:41.304Z,1.50
2018-03-20T12:29:41.310Z,2.70
2018-03-20T12:30:41.306Z,2.00
2018-03-20T12:31:41.294Z,0.90
2018-03-20T12:32:41.276Z,1.20
2018-03-20T12:33:41.278Z,1.40
2018-03-20T12:34:41.266Z,2.30
2018-03-20T12:35:41.256Z,1.30
2018-03-20T12:36:41.260Z,1.10
2018-03-20T12:37:41.314Z,1.80
2018-03-20T12:38:41.234Z,3.70
2018-03-20T12:39:41.237Z,1.90
2018-03-20T12:40:41.220Z,2.30
2018-03-20T12:41:41.213Z,1.40
2018-03-20T12:42:41.218Z,1.60
2018-03-20T12:43:41.210Z,1.30
2018-03-20T12:44:41.189Z,1.40
2018-03-20T12:45:41.187Z,1.50
2018-03-20T12:46:41.524Z,1.90
2018-03-20T12:47:41.178Z,2.10
2018-03-20T12:48:41.164Z,1.00
2018-03-20T12:49:41.168Z,1.70
2018-03-20T12:50:41.370Z,1.30
2018-03-20T12:51:41.151Z,1.20
2018-03-20T12:52:41.147Z,1.10
2018-03-20T12:53:41.141Z,1.80
2018-03-20T12:54:41.121Z,1.30
2018-03-20T12:55:41.125Z,1.50
2018-03-20T12:56:41.127Z,2.10
2018-03-20T12:57:41.100Z,1.30
2018-03-20T12:58:41.119Z,2.10
2018-03-20T12:59:41.089Z,1.30